createdAt,value
2018-08-24T00:00:20.779Z,20.52
2018-08-24T00:02:56.557Z,20.51
2018-08-24T00:05:31.774Z,20.54
2018-08-24T00:08:04.949Z,20.53
2018-08-24T00:10:40.991Z,20.49
2018-08-24T00:13:14.971Z,20.46
2018-08-24T00:15:47.747Z,19.87
2018-08-24T00:18:22.203Z,19.19
2018-08-24T00:20:54.912Z,18.75
2018-08-24T00:23:28.938Z,18.51
2018-08-24T00:26:03.287Z,18.32
2018-08-24T00:28:38.152Z,18.21
2018-08-24T00:31:14.530Z,18.15
2018-08-24T00:33:53.675Z,18.02
2018-08-24T00:36:26.626Z,17.74
2018-08-24T00:39:00.697Z,17.47
2018-08-24T00:41:33.274Z,17.29
2018-08-24T00:44:06.060Z,17.16
2018-08-24T00:46:41.291Z,17.06
2018-08-24T00:49:14.133Z,16.96
2018-08-24T00:51:46.772Z,16.90
2018-08-24T00:54:19.590Z,16.87
2018-08-24T00:56:52.393Z,16.85
2018-08-24T00:59:25.598Z,16.85
2018-08-24T01:02:00.820Z,16.88
2018-08-24T01:04:35.848Z,16.90
2018-08-24T01:07:11.299Z,16.93
2018-08-24T01:09:45.147Z,16.97
2018-08-24T01:12:19.487Z,17.00
2018-08-24T01:14:52.535Z,17.01
2018-08-24T01:17:31.633Z,17.04
2018-08-24T01:20:04.533Z,17.12
2018-08-24T01:22:37.597Z,17.13
2018-08-24T01:25:10.529Z,17.14
2018-08-24T01:27:43.911Z,17.16
2018-08-24T01:30:17.683Z,17.19
2018-08-24T01:32:51.736Z,17.22
2018-08-24T01:35:24.208Z,17.23
2018-08-24T01:37:56.669Z,17.25
2018-08-24T01:40:29.366Z,17.26
2018-08-24T01:43:01.896Z,17.27
2018-08-24T01:45:34.466Z,17.26
2018-08-24T01:48:08.413Z,17.25
2018-08-24T01:50:40.970Z,17.25
2018-08-24T01:53:13.592Z,17.30
2018-08-24T01:55:46.786Z,17.35
2018-08-24T01:58:20.003Z,17.32
2018-08-24T02:00:54.616Z,17.37
2018-08-24T02:03:28.354Z,17.39
2018-08-24T02:06:05.452Z,17.40
2018-08-24T02:08:37.960Z,17.38
2018-08-24T02:11:17.252Z,17.37
2018-08-24T02:13:56.089Z,17.36
2018-08-24T02:16:35.316Z,17.35
2018-08-24T02:19:10.502Z,17.31
2018-08-24T02:21:48.708Z,17.28
2018-08-24T02:24:21.509Z,17.29
2018-08-24T02:26:55.104Z,17.26
2018-08-24T02:29:27.660Z,17.21
2018-08-24T02:32:00.685Z,17.19
2018-08-24T02:34:33.216Z,17.11
2018-08-24T02:37:05.836Z,17.08
2018-08-24T02:39:39.617Z,16.99
2018-08-24T02:42:13.657Z,16.94
2018-08-24T02:44:46.484Z,16.91
2018-08-24T02:47:19.601Z,16.80
2018-08-24T02:49:52.216Z,16.70
2018-08-24T02:52:24.737Z,16.65
2018-08-24T02:55:02.451Z,16.56
2018-08-24T02:57:35.301Z,16.47
2018-08-24T03:00:07.437Z,16.39
2018-08-24T03:02:41.228Z,16.32
2018-08-24T03:05:13.781Z,16.31
2018-08-24T03:07:46.638Z,16.27
2018-08-24T03:10:19.600Z,16.24
2018-08-24T03:12:52.025Z,16.21
2018-08-24T03:15:24.637Z,16.16
2018-08-24T03:17:58.672Z,16.14
2018-08-24T03:20:31.868Z,16.19
2018-08-24T03:23:04.355Z,16.18
2018-08-24T03:25:38.665Z,16.15
2018-08-24T03:28:11.245Z,16.17
2018-08-24T03:30:43.750Z,16.19
2018-08-24T03:33:17.089Z,16.23
2018-08-24T03:35:50.233Z,16.32
2018-08-24T03:38:22.785Z,16.39
2018-08-24T03:40:55.584Z,16.41
2018-08-24T03:43:27.921Z,16.40
2018-08-24T03:46:00.442Z,16.41
2018-08-24T03:48:33.389Z,16.33
2018-08-24T03:51:07.012Z,16.28
2018-08-24T03:53:39.428Z,16.24
2018-08-24T03:56:13.581Z,16.21
2018-08-24T03:58:46.068Z,16.24
2018-08-24T04:01:21.560Z,16.19
2018-08-24T04:03:56.457Z,16.13
2018-08-24T04:06:29.079Z,16.07
2018-08-24T04:09:01.732Z,16.02
2018-08-24T04:11:34.453Z,15.99
2018-08-24T04:14:07.176Z,15.96
2018-08-24T04:16:46.370Z,15.94
2018-08-24T04:19:25.361Z,15.95
2018-08-24T04:21:58.335Z,15.90
2018-08-24T04:24:31.053Z,15.89
2018-08-24T04:27:03.640Z,15.85
2018-08-24T04:29:36.368Z,15.84
2018-08-24T04:32:09.000Z,15.82
2018-08-24T04:34:41.451Z,15.81
2018-08-24T04:37:15.349Z,15.81
2018-08-24T04:39:49.565Z,15.81
2018-08-24T04:42:22.892Z,15.81
2018-08-24T04:44:57.787Z,15.81
2018-08-24T04:47:30.289Z,15.82
2018-08-24T04:50:02.802Z,15.83
2018-08-24T04:52:36.721Z,15.85
2018-08-24T04:55:09.388Z,15.85
2018-08-24T04:57:42.828Z,15.84
2018-08-24T05:00:16.863Z,15.84
2018-08-24T05:02:49.427Z,15.85
2018-08-24T05:05:21.964Z,15.86
2018-08-24T05:07:54.825Z,15.85
2018-08-24T05:10:27.341Z,15.87
2018-08-24T05:12:59.913Z,15.88
2018-08-24T05:15:33.877Z,15.93
2018-08-24T05:18:07.863Z,15.93
2018-08-24T05:20:41.325Z,15.94
2018-08-24T05:23:15.260Z,15.95
2018-08-24T05:25:48.589Z,15.96
2018-08-24T05:28:23.782Z,16.02
2018-08-24T05:30:56.716Z,16.04
2018-08-24T05:33:29.257Z,16.04
2018-08-24T05:36:03.460Z,16.07
2018-08-24T05:38:36.080Z,16.09
2018-08-24T05:41:08.873Z,16.11
2018-08-24T05:43:41.861Z,16.13
2018-08-24T05:46:14.340Z,16.15
2018-08-24T05:48:46.769Z,16.19
2018-08-24T05:51:19.301Z,16.22
2018-08-24T05:53:51.941Z,16.23
2018-08-24T05:56:24.512Z,16.24
2018-08-24T05:58:59.018Z,16.25
2018-08-24T06:01:31.719Z,16.26
2018-08-24T06:04:04.537Z,16.27
2018-08-24T06:06:37.613Z,16.33
2018-08-24T06:09:14.192Z,16.33
2018-08-24T06:11:47.150Z,16.32
2018-08-24T06:14:20.777Z,16.32
2018-08-24T06:16:59.505Z,16.33
2018-08-24T06:19:32.820Z,16.35
2018-08-24T06:22:05.883Z,16.35
2018-08-24T06:24:38.621Z,16.36
2018-08-24T06:27:11.177Z,16.41
2018-08-24T06:29:43.744Z,16.42
2018-08-24T06:32:16.394Z,16.46
2018-08-24T06:34:48.963Z,16.49
2018-08-24T06:37:21.524Z,16.52
2018-08-24T06:39:54.100Z,16.57
2018-08-24T06:42:26.742Z,16.58
2018-08-24T06:45:02.970Z,16.59
2018-08-24T06:47:35.949Z,16.57
2018-08-24T06:50:08.453Z,16.57
2018-08-24T06:52:41.064Z,16.57
2018-08-24T06:55:13.487Z,16.55
2018-08-24T06:57:47.208Z,16.56
2018-08-24T07:00:25.357Z,16.53
2018-08-24T07:02:59.009Z,16.54
2018-08-24T07:05:33.010Z,16.53
2018-08-24T07:08:07.070Z,16.55
2018-08-24T07:10:40.601Z,16.57
2018-08-24T07:13:14.282Z,16.61
2018-08-24T07:15:47.014Z,16.62
2018-08-24T07:18:23.492Z,16.63
2018-08-24T07:20:58.932Z,16.64
2018-08-24T07:23:34.673Z,16.67
2018-08-24T07:26:08.926Z,16.72
2018-08-24T07:28:41.742Z,16.75
2018-08-24T07:31:15.063Z,16.75
2018-08-24T07:33:48.272Z,16.73
2018-08-24T07:36:21.637Z,16.72
2018-08-24T07:38:54.329Z,16.70
2018-08-24T07:41:27.966Z,16.75
2018-08-24T07:44:02.896Z,16.77
2018-08-24T07:46:35.618Z,16.74
2018-08-24T07:49:10.452Z,16.73
2018-08-24T07:51:45.405Z,16.74
2018-08-24T07:54:18.680Z,16.75
2018-08-24T07:56:54.443Z,16.78
2018-08-24T07:59:29.957Z,16.79
2018-08-24T08:02:06.282Z,16.79
2018-08-24T08:04:39.212Z,16.79
2018-08-24T08:07:11.704Z,16.84
2018-08-24T08:09:45.024Z,16.85
2018-08-24T08:12:22.066Z,16.83
2018-08-24T08:15:03.929Z,16.79
2018-08-24T08:17:42.227Z,16.79
2018-08-24T08:20:16.189Z,16.81
2018-08-24T08:22:52.243Z,16.87
2018-08-24T08:25:26.939Z,16.89
2018-08-24T08:28:00.135Z,16.91
2018-08-24T08:30:34.824Z,16.93
2018-08-24T08:33:09.375Z,16.96
2018-08-24T08:35:42.004Z,16.98
2018-08-24T08:38:14.876Z,17.02
2018-08-24T08:40:47.758Z,17.09
2018-08-24T08:43:20.369Z,17.05
2018-08-24T08:45:54.745Z,16.99
2018-08-24T08:48:28.318Z,16.72
2018-08-24T08:51:02.413Z,16.18
2018-08-24T08:53:35.386Z,15.71
2018-08-24T08:56:08.532Z,15.44
2018-08-24T08:58:41.264Z,15.31
2018-08-24T09:01:21.737Z,15.31
2018-08-24T09:03:58.604Z,15.39
2018-08-24T09:06:32.071Z,15.59
2018-08-24T09:09:09.649Z,15.83
2018-08-24T09:11:44.980Z,16.06
2018-08-24T09:14:17.751Z,16.35
2018-08-24T09:16:51.188Z,16.64
2018-08-24T09:19:29.422Z,17.02
2018-08-24T09:22:08.581Z,17.27
2018-08-24T09:24:46.540Z,17.39
2018-08-24T09:27:26.468Z,17.50
2018-08-24T09:30:04.792Z,17.47
2018-08-24T09:32:42.546Z,17.35
2018-08-24T09:35:15.616Z,17.27
2018-08-24T09:37:48.116Z,17.17
2018-08-24T09:40:28.434Z,17.19
2018-08-24T09:43:20.638Z,17.23
2018-08-24T09:45:56.145Z,17.44
2018-08-24T09:48:49.947Z,18.00
2018-08-24T09:51:27.375Z,18.15
2018-08-24T09:54:07.036Z,17.87
2018-08-24T09:56:40.453Z,17.61
2018-08-24T09:59:17.308Z,17.91
2018-08-24T10:01:58.868Z,18.42
2018-08-24T10:04:38.577Z,18.89
2018-08-24T10:07:17.530Z,19.39
2018-08-24T10:09:51.447Z,19.68
2018-08-24T10:12:24.605Z,19.60
2018-08-24T10:14:57.197Z,19.59
2018-08-24T10:17:30.405Z,19.51
2018-08-24T10:20:05.695Z,19.24
2018-08-24T10:22:42.230Z,19.04
2018-08-24T10:25:16.916Z,19.19
2018-08-24T10:27:52.133Z,19.34
2018-08-24T10:30:24.776Z,19.16
2018-08-24T10:32:58.159Z,18.95
2018-08-24T10:35:31.948Z,18.82
2018-08-24T10:38:07.247Z,18.83
2018-08-24T10:40:40.821Z,19.02
2018-08-24T10:43:15.240Z,19.11
2018-08-24T10:45:50.175Z,18.94
2018-08-24T10:48:26.413Z,18.86
2018-08-24T10:51:00.154Z,19.32
2018-08-24T10:53:32.896Z,19.72
2018-08-24T10:56:05.557Z,19.65
2018-08-24T10:58:40.852Z,19.81
2018-08-24T11:01:14.771Z,19.91
2018-08-24T11:03:51.359Z,19.64
2018-08-24T11:06:25.765Z,19.32
2018-08-24T11:08:59.747Z,19.17
2018-08-24T11:11:34.435Z,19.35
2018-08-24T11:14:08.361Z,19.62
2018-08-24T11:16:41.961Z,19.89
2018-08-24T11:19:14.833Z,20.14
2018-08-24T11:21:49.383Z,20.22
2018-08-24T11:24:37.187Z,20.03
2018-08-24T11:27:10.014Z,20.37
2018-08-24T11:29:44.774Z,21.02
2018-08-24T11:32:19.656Z,21.06
2018-08-24T11:34:56.054Z,20.95
2018-08-24T11:37:31.241Z,21.21
2018-08-24T11:40:04.668Z,21.28
2018-08-24T11:42:38.735Z,21.22
2018-08-24T11:45:15.229Z,21.19
2018-08-24T11:47:49.439Z,20.89
2018-08-24T11:50:26.477Z,20.92
2018-08-24T11:52:59.667Z,21.38
2018-08-24T11:55:33.473Z,21.90
2018-08-24T11:58:08.153Z,22.27
2018-08-24T12:00:41.898Z,22.51
2018-08-24T12:03:21.203Z,22.72
2018-08-24T12:05:55.586Z,22.83
2018-08-24T12:08:29.636Z,22.61
2018-08-24T12:11:02.161Z,22.58
2018-08-24T12:13:34.831Z,22.60
2018-08-24T12:16:07.745Z,22.49
2018-08-24T12:18:43.839Z,22.31
2018-08-24T12:21:16.393Z,21.83
2018-08-24T12:23:49.987Z,21.68
2018-08-24T12:26:26.417Z,22.14
2018-08-24T12:29:00.683Z,22.45
2018-08-24T12:31:34.528Z,22.20
2018-08-24T12:34:12.956Z,22.03
2018-08-24T12:36:46.761Z,22.19
2018-08-24T12:39:24.877Z,22.15
2018-08-24T12:41:59.052Z,22.19
2018-08-24T12:44:32.633Z,22.17
2018-08-24T12:47:08.209Z,22.17
2018-08-24T12:49:48.327Z,22.16
2018-08-24T12:52:22.327Z,22.36
2018-08-24T12:54:58.611Z,22.33
2018-08-24T13:00:15.747Z,22.77
2018-08-24T13:02:54.580Z,22.68
2018-08-24T13:05:27.820Z,22.60
2018-08-24T13:08:04.390Z,22.37
2018-08-24T13:10:38.249Z,22.10
2018-08-24T13:13:12.467Z,21.81
2018-08-24T13:15:46.409Z,21.57
2018-08-24T13:18:21.257Z,21.61
2018-08-24T13:20:55.481Z,21.59
2018-08-24T13:23:28.089Z,21.56
2018-08-24T13:26:03.155Z,21.46
2018-08-24T13:28:35.901Z,21.49
2018-08-24T13:31:11.441Z,21.56
2018-08-24T13:33:45.076Z,21.66
2018-08-24T13:36:19.043Z,21.73
2018-08-24T13:38:53.568Z,21.69
2018-08-24T13:41:45.530Z,21.66
2018-08-24T13:44:21.401Z,21.61
2018-08-24T13:46:57.251Z,21.82
2018-08-24T13:49:33.937Z,21.82
2018-08-24T13:52:06.835Z,21.80
2018-08-24T13:54:43.544Z,21.70
2018-08-24T13:57:16.788Z,21.54
2018-08-24T13:59:50.233Z,21.53
2018-08-24T14:02:23.068Z,21.38
2018-08-24T14:04:57.017Z,21.37
2018-08-24T14:07:34.320Z,21.43
2018-08-24T14:10:25.469Z,21.55
2018-08-24T14:13:00.819Z,21.57
2018-08-24T14:15:37.050Z,21.66
2018-08-24T14:18:18.420Z,21.56
2018-08-24T14:20:51.671Z,21.46
2018-08-24T14:23:24.208Z,21.40
2018-08-24T14:26:01.400Z,21.49
2018-08-24T14:28:38.115Z,21.49
2018-08-24T14:31:11.433Z,21.40
2018-08-24T14:33:47.632Z,21.27
2018-08-24T14:36:20.330Z,21.20
2018-08-24T14:38:53.579Z,21.16
2018-08-24T14:41:29.233Z,21.09
2018-08-24T14:44:02.716Z,21.09
2018-08-24T14:46:37.253Z,21.03
2018-08-24T14:49:12.753Z,21.01
2018-08-24T14:51:48.636Z,21.09
2018-08-24T14:54:23.205Z,21.15
2018-08-24T14:56:57.855Z,21.24
2018-08-24T14:59:32.325Z,21.24
2018-08-24T15:02:07.354Z,21.15
2018-08-24T15:04:41.569Z,21.03
2018-08-24T15:07:14.885Z,20.99
2018-08-24T15:09:49.657Z,20.87
2018-08-24T15:12:23.604Z,20.78
2018-08-24T15:14:59.389Z,20.67
2018-08-24T15:17:33.957Z,20.64
2018-08-24T15:20:10.981Z,20.64
2018-08-24T15:22:43.489Z,20.52
2018-08-24T15:25:16.049Z,20.46
2018-08-24T15:27:48.864Z,20.46
2018-08-24T15:30:23.558Z,20.37
2018-08-24T15:32:58.190Z,20.31
2018-08-24T15:35:30.784Z,20.30
2018-08-24T15:38:04.461Z,20.21
2018-08-24T15:40:37.157Z,20.17
2018-08-24T15:43:10.796Z,20.14
2018-08-24T15:45:47.666Z,20.09
2018-08-24T15:48:20.390Z,19.99
2018-08-24T15:50:54.092Z,19.84
2018-08-24T15:53:27.295Z,19.72
2018-08-24T15:56:01.682Z,19.68
2018-08-24T15:58:34.838Z,19.66
2018-08-24T16:01:11.830Z,19.58
2018-08-24T16:03:44.732Z,19.52
2018-08-24T16:06:24.753Z,19.47
2018-08-24T16:08:59.411Z,19.41
2018-08-24T16:11:33.085Z,19.38
2018-08-24T16:14:07.023Z,19.35
2018-08-24T16:16:40.773Z,19.40
2018-08-24T16:19:15.344Z,19.41
2018-08-24T16:21:51.156Z,19.35
2018-08-24T16:24:25.077Z,19.31
2018-08-24T16:26:59.906Z,19.36
2018-08-24T16:29:35.024Z,19.37
2018-08-24T16:32:10.213Z,19.34
2018-08-24T16:34:43.284Z,19.32
2018-08-24T16:37:16.477Z,19.29
2018-08-24T16:39:49.563Z,19.30
2018-08-24T16:42:24.957Z,19.35
2018-08-24T16:45:00.021Z,19.37
2018-08-24T16:47:35.888Z,19.38
2018-08-24T16:50:09.851Z,19.35
2018-08-24T16:52:43.964Z,19.27
2018-08-24T16:55:20.303Z,19.21
2018-08-24T16:57:54.539Z,19.18
2018-08-24T17:00:28.589Z,19.14
2018-08-24T17:03:04.760Z,19.09
2018-08-24T17:05:40.011Z,19.05
2018-08-24T17:08:16.829Z,19.01
2018-08-24T17:10:55.756Z,18.98
2018-08-24T17:13:39.910Z,18.90
2018-08-24T17:16:13.493Z,18.82
2018-08-24T17:18:48.723Z,18.73
2018-08-24T17:21:32.319Z,18.65
2018-08-24T17:24:07.279Z,18.60
2018-08-24T17:26:45.344Z,18.55
2018-08-24T17:29:19.340Z,18.47
2018-08-24T17:31:53.762Z,18.34
2018-08-24T17:34:27.624Z,18.24
2018-08-24T17:37:01.965Z,18.23
2018-08-24T17:39:36.969Z,18.19
2018-08-24T17:42:11.992Z,18.14
2018-08-24T17:44:44.615Z,18.08
2018-08-24T17:47:19.556Z,18.10
2018-08-24T17:49:55.666Z,18.12
2018-08-24T17:52:31.366Z,18.03
2018-08-24T17:55:07.614Z,17.99
2018-08-24T17:57:41.578Z,17.95
2018-08-24T18:00:21.358Z,17.88
2018-08-24T18:02:55.096Z,17.78
2018-08-24T18:05:27.792Z,17.73
2018-08-24T18:08:02.380Z,17.73
2018-08-24T18:10:36.536Z,17.63
2018-08-24T18:13:10.845Z,17.49
2018-08-24T18:15:50.510Z,17.40
2018-08-24T18:18:26.211Z,17.26
2018-08-24T18:21:03.847Z,17.18
2018-08-24T18:23:39.839Z,17.04
2018-08-24T18:26:14.037Z,16.90
2018-08-24T18:28:47.217Z,16.83
2018-08-24T18:31:20.440Z,16.74
2018-08-24T18:33:53.464Z,16.65
2018-08-24T18:36:27.667Z,16.58
2018-08-24T18:39:03.011Z,16.50
2018-08-24T18:41:37.596Z,16.43
2018-08-24T18:44:13.280Z,16.35
2018-08-24T18:46:48.603Z,16.25
2018-08-24T18:49:22.961Z,16.19
2018-08-24T18:51:56.565Z,16.17
2018-08-24T18:54:31.441Z,16.11
2018-08-24T18:57:06.349Z,16.09
2018-08-24T18:59:40.029Z,16.02
2018-08-24T19:02:14.177Z,15.99
2018-08-24T19:04:47.974Z,15.95
2018-08-24T19:07:22.043Z,15.98
2018-08-24T19:09:55.244Z,15.95
2018-08-24T19:12:32.453Z,15.90
2018-08-24T19:15:16.280Z,15.84
2018-08-24T19:18:14.095Z,15.77
2018-08-24T19:21:06.216Z,15.72
2018-08-24T19:23:39.716Z,15.62
2018-08-24T19:26:17.256Z,15.59
2018-08-24T19:29:04.743Z,15.51
2018-08-24T19:31:39.490Z,15.47
2018-08-24T19:34:17.272Z,15.35
2018-08-24T19:36:59.103Z,15.24
2018-08-24T19:39:37.002Z,15.16
2018-08-24T19:42:27.476Z,15.10
2018-08-24T19:45:04.749Z,15.05
2018-08-24T19:47:44.698Z,14.97
2018-08-24T19:50:20.999Z,14.93
2018-08-24T19:52:56.029Z,14.97
2018-08-24T19:55:32.182Z,14.92
2018-08-24T19:58:10.569Z,14.90
2018-08-24T20:00:43.177Z,14.89
2018-08-24T20:03:16.508Z,14.89
2018-08-24T20:05:56.593Z,14.88
2018-08-24T20:08:37.631Z,14.80
2018-08-24T20:11:14.401Z,14.74
2018-08-24T20:13:47.836Z,14.66
2018-08-24T20:16:32.442Z,14.60
2018-08-24T20:19:08.676Z,14.51
2018-08-24T20:21:42.334Z,14.47
2018-08-24T20:24:15.578Z,14.47
2018-08-24T20:26:49.900Z,14.46
2018-08-24T20:29:24.420Z,14.42
2018-08-24T20:32:03.300Z,14.39
2018-08-24T20:34:37.396Z,14.26
2018-08-24T20:37:11.278Z,14.22
2018-08-24T20:39:46.284Z,14.27
2018-08-24T20:42:20.692Z,14.30
2018-08-24T20:44:57.486Z,14.20
2018-08-24T20:47:39.855Z,13.98
2018-08-24T20:50:14.800Z,13.73
2018-08-24T20:52:49.831Z,13.56
2018-08-24T20:55:25.054Z,13.52
2018-08-24T20:58:00.322Z,13.60
2018-08-24T21:00:34.273Z,13.82
2018-08-24T21:03:07.129Z,14.13
2018-08-24T21:05:44.309Z,14.44
2018-08-24T21:08:18.058Z,14.62
2018-08-24T21:10:52.791Z,14.68
2018-08-24T21:13:28.679Z,14.74
2018-08-24T21:16:04.973Z,14.82
2018-08-24T21:18:42.644Z,14.92
2018-08-24T21:21:17.624Z,14.98
2018-08-24T21:23:53.868Z,15.02
2018-08-24T21:26:30.431Z,15.02
2018-08-24T21:29:04.351Z,15.05
2018-08-24T21:31:38.830Z,15.09
2018-08-24T21:34:11.460Z,15.11
2018-08-24T21:36:43.970Z,15.15
2018-08-24T21:39:17.757Z,15.21
2018-08-24T21:41:51.120Z,15.24
2018-08-24T21:44:25.009Z,15.26
2018-08-24T21:46:58.669Z,15.26
2018-08-24T21:49:32.104Z,15.29
2018-08-24T21:52:06.637Z,15.30
2018-08-24T21:54:39.671Z,15.34
2018-08-24T21:57:14.024Z,15.37
2018-08-24T21:59:47.189Z,15.38
2018-08-24T22:02:20.648Z,15.37
2018-08-24T22:04:53.231Z,15.37
2018-08-24T22:07:26.833Z,15.34
2018-08-24T22:10:03.674Z,15.31
2018-08-24T22:12:40.171Z,15.27
2018-08-24T22:15:16.773Z,15.26
2018-08-24T22:17:51.253Z,15.19
2018-08-24T22:20:25.413Z,15.20
2018-08-24T22:22:57.963Z,15.25
2018-08-24T22:25:31.377Z,15.31
2018-08-24T22:28:07.695Z,15.31
2018-08-24T22:30:41.613Z,15.32
2018-08-24T22:33:18.139Z,15.30
2018-08-24T22:35:50.702Z,15.24
2018-08-24T22:38:24.321Z,15.28
2018-08-24T22:40:58.768Z,15.31
2018-08-24T22:43:35.341Z,15.32
2018-08-24T22:46:08.480Z,15.38
2018-08-24T22:48:41.568Z,15.39
2018-08-24T22:51:14.957Z,15.43
2018-08-24T22:53:49.008Z,15.46
2018-08-24T22:56:23.917Z,15.46
2018-08-24T22:58:58.525Z,15.43
2018-08-24T23:01:44.529Z,15.39
2018-08-24T23:04:17.684Z,15.37
2018-08-24T23:06:52.078Z,15.42
2018-08-24T23:09:27.925Z,15.48
2018-08-24T23:12:01.236Z,15.56
2018-08-24T23:14:34.461Z,15.56
2018-08-24T23:17:09.237Z,15.56
2018-08-24T23:19:44.341Z,15.57
2018-08-24T23:22:20.169Z,15.55
2018-08-24T23:24:53.569Z,15.54
2018-08-24T23:27:28.705Z,15.48
2018-08-24T23:30:02.753Z,15.46
2018-08-24T23:32:41.023Z,15.43
2018-08-24T23:35:15.892Z,15.36
2018-08-24T23:37:56.381Z,15.31
2018-08-24T23:40:29.134Z,15.26
2018-08-24T23:43:02.636Z,15.19
2018-08-24T23:45:36.167Z,15.15
2018-08-24T23:48:08.857Z,15.11
2018-08-24T23:50:44.274Z,15.13
2018-08-24T23:53:17.273Z,15.13
2018-08-24T23:55:50.314Z,15.12
2018-08-24T23:58:26.553Z,15.06
